Terminal Aerodrome Forecast
Issued by NWS Charleston, WV

Current Version | Previous Version | Graphics & Text | Print | Product List | Glossary On
Versions: 1 2 3 4 5 6 7 8 9 10 11 12 13 14 15 16 17 18 19 20 21 22 23
584
FTUS41 KRLX 020913 AAA
TAFCRW
TAF AMD
KCRW 020913Z 0209/0306 16005KT 6SM BR SCT030 BKN100
     FM021000 VRB03KT 5SM BR BKN050
     FM021300 22006KT P6SM BKN050
     FM021700 23008KT P6SM BKN035
     FM022200 24008KT P6SM -SHRA VCTS OVC060CB=

USA.gov is the U.S. government's official web portal to all federal, state and local government web resources and services.